Custer, MT (59024)

4:51 PM MDT on August 24, 2016 (GMT -0600)
MesoWest | | Change Station

Elev 2663 ft 46.29 °N, 107.23 °W | Updated 51 minutes ago

Scattered Clouds
Scattered Clouds
66 °F
Feels Like 66 °F
N
16
Wind Variable Wind from NW
Gusts 0.0 mph

Today
High -- | Low -- °F
--% Chance of Precip.
Yesterday
High -- | Low -- °F
Precip. -- in
Pressure 30.22 in
Visibility 10.0 miles
Clouds Scattered Clouds 5000 ft
Dew Point 40 °F
Humidity 39%
Rainfall in
Snow Depth Not available.
6:21 AM 8:03 PM
Waning Gibbous, 52% visible
METAR KBIL 242153Z 36016G22KT 10SM SCT050 20/04 A3026 RMK AO2 SLP232 CB SHRA DSNT SW T02000044
Pressure 30.22 in
Visibility 10.0 miles
Clouds Scattered Clouds 5000 ft
Dew Point 40 °F
Humidity 39%
Rainfall in
Snow Depth Not available.
6:21 AM 8:03 PM
Waning Gibbous, 52% visible
METAR KBIL 242153Z 36016G22KT 10SM SCT050 20/04 A3026 RMK AO2 SLP232 CB SHRA DSNT SW T02000044

10-Day Weather Forecast

Almanac

Astronomy

Aug. 24, 2016 Rise Set
Actual Time
Civil Twilight
Nautical Twilight
Astronomical Twilight
Moon
Length of Visible Light
Length of Day
Tomorrow will be .
, % of the Moon is Illuminated

Today's Extremes

State Highs State Lows

Community

WunderPhotos

Upload Photos

1,934,728 photos uploaded!

WunderBlog® & News

Nearby

Air Quality

  Air Quality AQ Index Pollutant
Not available.

Snow Depth

Station Depth Elevation

Earthquake Activity

City Distance Mag. Time & Date
Minimum magnitude displayed is 2.5.

Coastal Water Temperatures

Place Temperature

Stations

Nearby Weather Stations

Station Location Temp. Windchill Dew Point Humidity Wind Precip. Elev Updated Type
                   

Watches & Warnings

There are currently no watches in effect.